Time;durP1;ratioP1;P1;durP2;ratioP2;P2;SDS_P1;SDS_P2;PMS_P1;PMS_P2;Temp;Humidity;BMP_temperature;BMP_pressure;BME280_temperature;BME280_humidity;BME280_pressure;Samples;Min_cycle;Max_cycle;Signal;HPM_P1;HPM_P2
2022/06/24 00:00:12;;;;;;;8.80;5.50;;;25.50;97.80;;;;;;5042262;28;20444;-86
2022/06/24 00:02:40;;;;;;;6.07;4.60;;;25.40;98.10;;;;;;5060098;28;20448;-86
2022/06/24 00:05:13;;;;;;;7.23;5.00;;;25.60;97.40;;;;;;5045293;28;20454;-86
2022/06/24 00:07:58;;;;;;;7.73;5.53;;;25.70;96.90;;;;;;5040229;28;20436;-87
2022/06/24 00:10:34;;;;;;;11.83;5.97;;;25.50;97.10;;;;;;5040225;28;20523;-84
2022/06/24 00:13:02;;;;;;;8.57;6.00;;;25.30;97.50;;;;;;5041908;28;20490;-84
2022/06/24 00:15:34;;;;;;;7.80;5.10;;;25.20;98.50;;;;;;5060300;28;20511;-84
2022/06/24 00:18:15;;;;;;;6.47;5.20;;;24.80;99.30;;;;;;5060595;28;20791;-85
2022/06/24 00:20:47;;;;;;;5.67;4.33;;;24.60;99.90;;;;;;5042537;28;20478;-85
2022/06/24 00:23:19;;;;;;;12.37;5.20;;;24.50;99.90;;;;;;5059093;28;20479;-84
2022/06/24 00:25:46;;;;;;;7.00;4.70;;;24.10;99.90;;;;;;5060404;28;20451;-83
2022/06/24 00:28:13;;;;;;;8.97;5.20;;;23.90;99.90;;;;;;5040457;28;20458;-84
2022/06/24 00:30:50;;;;;;;6.30;4.30;;;23.70;99.90;;;;;;5040347;28;20948;-85
2022/06/24 00:33:19;;;;;;;6.93;4.70;;;23.60;99.90;;;;;;5059316;28;20485;-85
2022/06/24 00:35:56;;;;;;;7.07;4.13;;;23.50;99.90;;;;;;5042425;28;22030;-85
2022/06/24 00:38:31;;;;;;;7.53;3.90;;;23.30;99.90;;;;;;5040465;28;20455;-86
2022/06/24 00:41:05;;;;;;;4.03;3.50;;;23.20;99.90;;;;;;5003541;28;20455;-83
2022/06/24 00:43:42;;;;;;;5.00;2.97;;;23.30;99.90;;;;;;5036100;28;20493;-84
2022/06/24 00:46:14;;;;;;;8.73;4.10;;;23.40;99.90;;;;;;5038701;28;20957;-83
2022/06/24 00:48:47;;;;;;;5.83;4.00;;;23.20;99.90;;;;;;5056673;28;20523;-85
2022/06/24 00:51:15;;;;;;;9.07;3.57;;;23.10;99.90;;;;;;5021591;28;20459;-83
2022/06/24 00:53:50;;;;;;;3.87;3.47;;;23.00;99.90;;;;;;5054280;28;20490;-83
2022/06/24 00:56:19;;;;;;;8.80;3.70;;;23.10;99.90;;;;;;5037122;28;20971;-84
2022/06/24 00:58:58;;;;;;;6.40;3.87;;;23.00;99.90;;;;;;5053778;28;20471;-84
2022/06/24 01:01:41;;;;;;;7.57;4.40;;;23.00;99.90;;;;;;5056068;28;20869;-85
2022/06/24 01:04:10;;;;;;;8.20;4.50;;;23.00;99.90;;;;;;5056974;28;20992;-85
2022/06/24 01:06:40;;;;;;;6.73;3.80;;;22.90;99.90;;;;;;5038734;28;20462;-85
2022/06/24 01:09:08;;;;;;;6.73;4.47;;;22.90;99.90;;;;;;5042556;28;21509;-86
2022/06/24 01:11:53;;;;;;;5.70;3.77;;;23.00;99.90;;;;;;5056894;28;20469;-85
2022/06/24 01:14:20;;;;;;;5.50;4.20;;;23.10;99.90;;;;;;5038830;28;20471;-82
2022/06/24 01:16:48;;;;;;;8.47;4.13;;;23.00;99.90;;;;;;5056256;28;20459;-82
2022/06/24 01:19:15;;;;;;;6.13;4.43;;;23.00;99.90;;;;;;5039130;28;20898;-84
2022/06/24 01:21:45;;;;;;;5.47;3.50;;;22.90;99.90;;;;;;5062482;28;20455;-82
2022/06/24 01:24:19;;;;;;;6.97;4.07;;;22.90;99.90;;;;;;5060771;28;20473;-84
2022/06/24 01:26:48;;;;;;;5.33;3.57;;;22.90;99.90;;;;;;5067381;28;20958;-86
2022/06/24 01:29:18;;;;;;;9.83;4.00;;;22.90;99.90;;;;;;5064554;28;20455;-85
2022/06/24 01:31:48;;;;;;;6.93;3.43;;;22.90;99.90;;;;;;5045695;28;20463;-85
2022/06/24 01:34:17;;;;;;;5.00;3.40;;;22.80;99.90;;;;;;5050782;28;20474;-85
2022/06/24 01:36:45;;;;;;;4.63;3.77;;;22.80;99.90;;;;;;5068059;28;20474;-85
2022/06/24 01:39:11;;;;;;;3.40;3.10;;;22.80;99.90;;;;;;5072031;28;20472;-85
2022/06/24 01:41:39;;;;;;;7.63;3.80;;;22.70;99.90;;;;;;5066480;28;20540;-85
2022/06/24 01:44:06;;;;;;;4.30;3.90;;;22.70;99.90;;;;;;5060916;28;20493;-84
2022/06/24 01:46:33;;;;;;;7.43;3.10;;;22.70;99.90;;;;;;5049813;28;20459;-85
2022/06/24 01:49:00;;;;;;;3.13;2.83;;;22.70;99.90;;;;;;5069048;28;20526;-86
2022/06/24 01:51:28;;;;;;;6.80;3.40;;;22.70;99.90;;;;;;5072574;28;20503;-85
2022/06/24 01:53:55;;;;;;;5.63;3.63;;;22.60;99.90;;;;;;5089787;28;20494;-86
2022/06/24 01:56:22;;;;;;;4.40;3.77;;;22.60;99.90;;;;;;5072169;28;20522;-86
2022/06/24 01:58:49;;;;;;;3.20;2.90;;;22.60;99.90;;;;;;5087826;28;20452;-85
2022/06/24 02:01:16;;;;;;;6.40;3.10;;;22.60;99.90;;;;;;5089427;28;20471;-86
2022/06/24 02:03:43;;;;;;;5.80;4.00;;;22.70;99.90;;;;;;5069741;28;20475;-83
2022/06/24 02:06:12;;;;;;;3.77;3.43;;;22.80;99.90;;;;;;5058162;28;20456;-85
2022/06/24 02:08:40;;;;;;;6.70;3.57;;;22.80;99.90;;;;;;5055119;28;20439;-85
2022/06/24 02:13:59;;;;;;;5.90;3.30;;;22.80;99.90;;;;;;5075637;28;20490;-84
2022/06/24 02:16:26;;;;;;;6.37;3.83;;;22.90;99.90;;;;;;5075163;28;20463;-86
2022/06/24 02:18:55;;;;;;;5.00;3.80;;;22.80;99.90;;;;;;5059690;28;20440;-86
2022/06/24 02:21:23;;;;;;;5.80;4.10;;;22.80;99.90;;;;;;5078438;28;20432;-85
2022/06/24 02:23:50;;;;;;;7.77;4.20;;;22.70;99.90;;;;;;5078393;28;20471;-86
2022/06/24 02:26:18;;;;;;;7.87;3.73;;;22.70;99.90;;;;;;5061137;28;20450;-84
2022/06/24 02:28:49;;;;;;;7.93;4.60;;;22.60;99.90;;;;;;5078113;28;20448;-84
2022/06/24 02:31:17;;;;;;;5.37;4.17;;;22.60;99.90;;;;;;5060270;28;20934;-85
2022/06/24 02:33:44;;;;;;;4.00;3.47;;;22.50;99.90;;;;;;5064779;28;20550;-84
2022/06/24 02:36:10;;;;;;;6.30;3.60;;;22.50;99.90;;;;;;5079942;28;20505;-83
2022/06/24 02:38:37;;;;;;;5.13;3.60;;;22.60;99.90;;;;;;5076519;28;20444;-87
2022/06/24 02:41:10;;;;;;;5.10;3.87;;;22.50;99.90;;;;;;5068593;28;20535;-85
2022/06/24 02:43:39;;;;;;;4.10;3.70;;;22.50;99.90;;;;;;5077212;28;20479;-85
2022/06/24 02:46:08;;;;;;;5.93;4.00;;;22.60;99.90;;;;;;5085545;28;20435;-87
2022/06/24 02:48:37;;;;;;;3.70;3.30;;;22.70;99.90;;;;;;5069973;28;20440;-88
2022/06/24 02:51:06;;;;;;;4.10;3.40;;;22.70;99.90;;;;;;5065421;28;20464;-88
2022/06/24 02:53:34;;;;;;;3.80;3.43;;;22.70;99.90;;;;;;5060470;28;20492;-86
2022/06/24 02:56:07;;;;;;;4.77;3.07;;;22.80;99.90;;;;;;5076868;28;20498;-87
2022/06/24 02:58:35;;;;;;;3.90;3.50;;;22.80;99.90;;;;;;5074750;28;20483;-88
2022/06/24 03:01:02;;;;;;;4.00;3.20;;;22.80;99.90;;;;;;5072224;28;20458;-84
2022/06/24 03:03:30;;;;;;;6.43;4.07;;;22.80;99.90;;;;;;5032142;28;20463;-85
2022/06/24 03:05:57;;;;;;;6.27;4.40;;;22.80;99.90;;;;;;5044499;28;20435;-83
2022/06/24 03:08:26;;;;;;;5.33;3.90;;;22.80;99.90;;;;;;5044285;28;20444;-84
2022/06/24 03:10:54;;;;;;;3.73;3.40;;;22.80;99.90;;;;;;5061411;28;20438;-83
2022/06/24 03:13:22;;;;;;;3.97;3.60;;;22.80;99.90;;;;;;5041230;28;20488;-82
2022/06/24 03:15:50;;;;;;;4.00;3.70;;;22.80;99.90;;;;;;5039941;28;20562;-84
2022/06/24 03:18:18;;;;;;;3.87;3.47;;;22.80;99.90;;;;;;5058985;28;20466;-86
2022/06/24 03:20:45;;;;;;;4.27;3.77;;;22.80;99.90;;;;;;5057582;28;20564;-84
2022/06/24 03:23:14;;;;;;;4.37;3.97;;;23.10;99.90;;;;;;5057830;28;20560;-85
2022/06/24 03:25:42;;;;;;;4.77;4.20;;;23.00;99.90;;;;;;5043298;28;20574;-84
2022/06/24 03:28:09;;;;;;;4.60;4.20;;;23.20;99.90;;;;;;5041112;28;20444;-83
2022/06/24 03:30:35;;;;;;;4.47;4.00;;;23.10;99.90;;;;;;5060893;28;20451;-84
2022/06/24 03:33:04;;;;;;;4.10;3.20;;;23.10;99.90;;;;;;5043211;28;20507;-83
2022/06/24 03:35:39;;;;;;;4.03;3.63;;;23.20;99.90;;;;;;5044579;28;20459;-84
2022/06/24 03:38:06;;;;;;;4.07;3.67;;;23.30;99.90;;;;;;5046080;28;20459;-83
2022/06/24 03:40:33;;;;;;;4.37;3.97;;;23.00;99.90;;;;;;5044855;28;20447;-85
2022/06/24 03:43:00;;;;;;;5.13;3.77;;;23.00;99.90;;;;;;5048199;28;20479;-82
2022/06/24 03:45:27;;;;;;;4.53;3.97;;;22.90;99.90;;;;;;5049449;28;20492;-83
2022/06/24 03:47:54;;;;;;;4.43;3.17;;;23.00;99.90;;;;;;5043806;28;20459;-84
2022/06/24 03:50:21;;;;;;;4.20;3.80;;;22.90;99.90;;;;;;5072314;28;20450;-86
2022/06/24 03:52:49;;;;;;;5.03;4.50;;;23.00;99.90;;;;;;5086775;28;20502;-85
2022/06/24 03:55:16;;;;;;;4.00;3.60;;;23.10;99.90;;;;;;5061344;28;20450;-85
2022/06/24 03:57:45;;;;;;;4.77;4.37;;;23.00;99.90;;;;;;5049217;28;20459;-83
2022/06/24 04:00:14;;;;;;;5.20;4.30;;;22.90;99.90;;;;;;5067311;28;20443;-84
2022/06/24 04:02:40;;;;;;;4.73;3.80;;;22.70;99.90;;;;;;5067884;28;20467;-84
2022/06/24 04:05:13;;;;;;;4.87;4.37;;;22.80;99.90;;;;;;5072504;28;20462;-85
2022/06/24 04:07:40;;;;;;;4.13;3.73;;;22.80;99.90;;;;;;5062287;28;20451;-85
2022/06/24 04:10:07;;;;;;;7.13;4.33;;;22.80;99.90;;;;;;5049633;28;21837;-84
2022/06/24 04:12:34;;;;;;;5.77;4.60;;;22.90;99.90;;;;;;5049412;28;20450;-83
2022/06/24 04:15:34;;;;;;;8.43;4.70;;;22.80;99.90;;;;;;5069257;28;21367;-88
2022/06/24 04:17:54;;;;;;;5.73;5.23;;;22.60;99.90;;;;;;5066339;28;20544;-86
2022/06/24 04:20:21;;;;;;;5.23;4.43;;;22.80;99.90;;;;;;5053728;28;20440;-85
2022/06/24 04:22:48;;;;;;;4.60;4.20;;;22.90;99.90;;;;;;5067068;28;20806;-85
2022/06/24 04:25:15;;;;;;;8.40;6.90;;;22.80;99.90;;;;;;5048029;28;20454;-84
2022/06/24 04:27:42;;;;;;;6.90;4.47;;;22.70;99.90;;;;;;5046345;28;20540;-85
2022/06/24 04:30:11;;;;;;;5.47;4.57;;;22.80;99.90;;;;;;5047637;28;20456;-84
2022/06/24 04:32:38;;;;;;;6.20;5.47;;;23.10;99.90;;;;;;5046917;28;20453;-84
2022/06/24 04:35:06;;;;;;;6.93;5.00;;;23.10;99.90;;;;;;5028218;28;20452;-85
2022/06/24 04:37:35;;;;;;;4.90;4.50;;;22.80;99.90;;;;;;5031285;28;20456;-85
2022/06/24 04:40:05;;;;;;;5.60;4.60;;;22.60;99.90;;;;;;5047927;28;20910;-85
2022/06/24 04:42:32;;;;;;;5.20;4.80;;;22.80;99.90;;;;;;5062439;28;20464;-84
2022/06/24 04:44:59;;;;;;;6.67;4.60;;;22.80;99.90;;;;;;5048238;28;20449;-85
2022/06/24 04:47:26;;;;;;;6.33;4.47;;;22.70;99.90;;;;;;5047834;28;20463;-86
2022/06/24 04:49:53;;;;;;;5.77;5.20;;;22.60;99.90;;;;;;5045986;28;21227;-86
2022/06/24 04:52:22;;;;;;;5.20;4.70;;;22.60;99.90;;;;;;5047752;28;20460;-84
2022/06/24 04:54:57;;;;;;;5.47;5.00;;;22.50;99.90;;;;;;5047208;28;20475;-86
2022/06/24 04:57:27;;;;;;;4.87;4.50;;;22.60;99.90;;;;;;5071814;28;20434;-87
2022/06/24 04:59:58;;;;;;;5.27;4.87;;;22.70;99.90;;;;;;5064250;28;20420;-83
2022/06/24 05:02:33;;;;;;;7.43;5.70;;;22.70;99.90;;;;;;5083313;28;21094;-85
2022/06/24 05:05:01;;;;;;;6.20;5.70;;;22.80;99.90;;;;;;5074446;28;20508;-84
2022/06/24 05:07:35;;;;;;;6.50;5.67;;;23.00;99.90;;;;;;5050411;28;20458;-85
2022/06/24 05:10:03;;;;;;;6.30;5.67;;;22.90;99.90;;;;;;5049211;28;20466;-84
2022/06/24 05:12:30;;;;;;;5.67;5.07;;;22.70;99.90;;;;;;5046777;28;20541;-84
2022/06/24 05:14:59;;;;;;;6.90;5.90;;;22.80;99.90;;;;;;5066324;28;20437;-83
2022/06/24 05:17:26;;;;;;;6.20;5.60;;;23.10;99.90;;;;;;5070138;28;20444;-85
2022/06/24 05:19:54;;;;;;;6.23;4.47;;;22.90;99.90;;;;;;5048512;28;21886;-85
2022/06/24 05:22:20;;;;;;;6.40;3.80;;;22.80;99.90;;;;;;5050643;28;20444;-84
2022/06/24 05:24:47;;;;;;;7.50;4.40;;;22.60;99.90;;;;;;5054713;28;20524;-84
2022/06/24 05:27:14;;;;;;;4.90;3.33;;;22.50;99.90;;;;;;5052179;28;20465;-83
2022/06/24 05:29:41;;;;;;;3.67;2.97;;;22.30;99.90;;;;;;5066995;28;20576;-82
2022/06/24 05:32:08;;;;;;;4.13;3.20;;;22.20;99.90;;;;;;5056058;28;20459;-85
2022/06/24 05:34:35;;;;;;;8.50;4.70;;;22.20;99.90;;;;;;5061849;28;20487;-84
2022/06/24 05:37:02;;;;;;;5.10;3.57;;;22.10;99.90;;;;;;5068161;28;20487;-85
2022/06/24 05:39:32;;;;;;;8.37;3.77;;;22.20;99.90;;;;;;5086811;28;20463;-87
2022/06/24 05:41:58;;;;;;;7.53;3.77;;;22.20;99.90;;;;;;5068668;28;20455;-84
2022/06/24 05:44:25;;;;;;;6.83;3.67;;;22.10;99.90;;;;;;5067574;28;20535;-86
2022/06/24 05:46:54;;;;;;;7.23;3.50;;;22.00;99.90;;;;;;5085986;28;20507;-87
2022/06/24 05:49:24;;;;;;;4.13;3.00;;;22.10;99.90;;;;;;5084692;28;20450;-88
2022/06/24 05:51:51;;;;;;;3.30;3.00;;;22.10;99.90;;;;;;5060866;28;20468;-87
2022/06/24 05:57:05;;;;;;;4.13;3.03;;;22.10;99.90;;;;;;5065730;28;20451;-85
2022/06/24 05:59:37;;;;;;;5.73;2.77;;;22.00;99.90;;;;;;5048765;28;20460;-84
2022/06/24 06:02:06;;;;;;;5.03;2.90;;;22.10;99.90;;;;;;5050948;28;20503;-85
2022/06/24 06:04:33;;;;;;;8.23;2.70;;;22.00;99.90;;;;;;5066430;28;20475;-82
2022/06/24 06:07:00;;;;;;;8.37;2.50;;;22.00;99.90;;;;;;5045994;28;20454;-82
2022/06/24 06:09:27;;;;;;;7.60;2.80;;;22.10;99.90;;;;;;5045390;28;20455;-81
2022/06/24 06:11:54;;;;;;;8.73;3.10;;;21.90;99.90;;;;;;5016893;28;20458;-82
2022/06/24 06:14:21;;;;;;;6.10;2.80;;;21.90;99.90;;;;;;5071893;28;20536;-84
2022/06/24 06:16:48;;;;;;;8.23;3.00;;;21.80;99.90;;;;;;5054062;28;20528;-83
2022/06/24 06:19:16;;;;;;;7.13;2.67;;;22.10;99.90;;;;;;5078231;28;20451;-84
2022/06/24 06:21:44;;;;;;;2.73;2.30;;;22.10;99.90;;;;;;5089975;28;20495;-84
2022/06/24 06:24:11;;;;;;;4.10;2.40;;;22.40;99.90;;;;;;5068292;28;20487;-87
2022/06/24 06:26:38;;;;;;;4.13;2.50;;;22.30;99.90;;;;;;5053274;28;20451;-84
2022/06/24 06:29:10;;;;;;;4.07;3.10;;;22.00;99.90;;;;;;5072608;28;20452;-85
2022/06/24 06:31:42;;;;;;;4.30;2.43;;;22.10;99.90;;;;;;5052416;28;20460;-83
2022/06/24 06:34:23;;;;;;;3.93;2.47;;;22.10;99.90;;;;;;5051629;28;20475;-84
2022/06/24 06:36:50;;;;;;;4.37;2.43;;;22.40;99.90;;;;;;5081038;28;20419;-86
2022/06/24 06:39:25;;;;;;;4.10;2.60;;;22.20;99.90;;;;;;5069462;28;20455;-86
2022/06/24 06:41:54;;;;;;;4.10;2.67;;;22.20;99.90;;;;;;5085178;28;20459;-84
2022/06/24 06:44:25;;;;;;;4.50;2.43;;;22.30;99.90;;;;;;5055822;28;20467;-85
2022/06/24 06:46:52;;;;;;;3.50;2.50;;;22.20;99.90;;;;;;5050323;28;20444;-83
2022/06/24 06:49:31;;;;;;;4.07;2.73;;;22.30;99.90;;;;;;5052529;28;20467;-85
2022/06/24 06:52:02;;;;;;;3.37;2.63;;;22.20;99.90;;;;;;5067235;28;21230;-86
2022/06/24 06:54:32;;;;;;;5.00;2.83;;;22.30;99.90;;;;;;5067367;28;20491;-83
2022/06/24 06:57:01;;;;;;;4.30;2.90;;;22.20;99.90;;;;;;5069321;28;20451;-83
2022/06/24 06:59:33;;;;;;;5.37;2.93;;;22.30;99.90;;;;;;5068533;28;20478;-84
2022/06/24 07:02:08;;;;;;;7.50;3.40;;;22.50;99.90;;;;;;5048510;28;20444;-84
2022/06/24 07:04:35;;;;;;;6.77;2.80;;;22.70;99.90;;;;;;5048123;28;20493;-84
2022/06/24 07:07:11;;;;;;;3.70;3.30;;;22.60;99.90;;;;;;5050147;28;20445;-86
2022/06/24 07:09:38;;;;;;;9.03;3.03;;;22.60;99.90;;;;;;5048441;28;20447;-86
2022/06/24 07:12:14;;;;;;;4.47;3.70;;;22.40;99.90;;;;;;5048937;28;20531;-85
2022/06/24 07:14:42;;;;;;;4.93;3.70;;;22.40;99.90;;;;;;5070243;28;20574;-83
2022/06/24 07:17:13;;;;;;;7.50;3.43;;;22.20;99.90;;;;;;5065398;28;20458;-84
2022/06/24 07:19:47;;;;;;;3.97;3.00;;;22.30;99.90;;;;;;5053374;28;20455;-83
2022/06/24 07:22:15;;;;;;;5.30;2.93;;;22.20;99.90;;;;;;5048239;28;20485;-84
2022/06/24 07:24:50;;;;;;;5.00;3.70;;;22.20;99.90;;;;;;5063417;28;20707;-83
2022/06/24 07:27:19;;;;;;;5.23;3.00;;;22.40;99.90;;;;;;5062211;28;20450;-85
2022/06/24 07:29:50;;;;;;;8.03;4.30;;;22.30;99.90;;;;;;5062411;28;21006;-87
2022/06/24 07:32:20;;;;;;;3.90;2.30;;;22.40;99.90;;;;;;5043762;28;20440;-85
2022/06/24 07:34:54;;;;;;;9.03;3.30;;;22.10;99.90;;;;;;5062242;28;20475;-85
2022/06/24 07:37:23;;;;;;;4.90;3.80;;;21.90;99.90;;;;;;5062148;28;20440;-83
2022/06/24 07:39:56;;;;;;;3.50;2.17;;;21.80;99.90;;;;;;5063192;28;20558;-85
2022/06/24 07:42:25;;;;;;;4.17;2.20;;;21.60;99.90;;;;;;5062088;28;20448;-86
2022/06/24 07:44:51;;;;;;;2.50;1.73;;;21.50;99.90;;;;;;5062530;28;21234;-85
2022/06/24 07:47:18;;;;;;;3.80;2.80;;;21.40;99.90;;;;;;5063794;28;20474;-83
2022/06/24 07:49:45;;;;;;;2.30;2.10;;;21.40;99.90;;;;;;5045975;28;20459;-85
2022/06/24 07:52:12;;;;;;;2.33;1.97;;;21.30;99.90;;;;;;5049988;28;20518;-85
2022/06/24 07:54:40;;;;;;;4.47;2.83;;;21.30;99.90;;;;;;5037960;28;20494;-84
2022/06/24 07:57:07;;;;;;;4.53;3.60;;;21.30;99.90;;;;;;5022701;28;20451;-85
2022/06/24 07:59:36;;;;;;;4.90;2.73;;;21.30;99.90;;;;;;5065127;28;20444;-85
2022/06/24 08:02:07;;;;;;;2.53;2.30;;;21.20;99.90;;;;;;5068004;28;20435;-84
2022/06/24 08:04:34;;;;;;;3.03;2.73;;;21.20;99.90;;;;;;5070969;28;20479;-85
2022/06/24 08:07:04;;;;;;;3.07;2.83;;;21.20;99.90;;;;;;5051774;28;20444;-83
2022/06/24 08:09:32;;;;;;;3.80;3.20;;;21.30;99.90;;;;;;5025154;28;20530;-84
2022/06/24 08:12:00;;;;;;;3.27;3.07;;;21.20;99.90;;;;;;5070459;28;20773;-84
2022/06/24 08:14:30;;;;;;;3.53;3.20;;;21.30;99.90;;;;;;5052110;28;20479;-84
2022/06/24 08:17:04;;;;;;;3.57;3.27;;;21.20;99.90;;;;;;5050265;28;20911;-85
2022/06/24 08:19:31;;;;;;;4.90;3.90;;;21.20;99.90;;;;;;5050107;28;20460;-83
2022/06/24 08:22:06;;;;;;;4.50;3.83;;;21.20;99.90;;;;;;5035071;28;20462;-83
2022/06/24 08:24:36;;;;;;;6.23;4.70;;;21.20;99.90;;;;;;5049359;28;20501;-85
2022/06/24 08:27:05;;;;;;;4.57;4.03;;;21.10;99.90;;;;;;5071925;28;20547;-87
2022/06/24 08:29:39;;;;;;;6.07;3.87;;;21.10;99.90;;;;;;5050922;28;20473;-85
2022/06/24 08:32:09;;;;;;;4.53;4.10;;;21.20;99.90;;;;;;5072065;28;20446;-85
2022/06/24 08:34:38;;;;;;;4.70;4.20;;;21.30;99.90;;;;;;5072192;28;20476;-84
2022/06/24 08:37:28;;;;;;;4.50;3.93;;;21.40;99.90;;;;;;5058598;28;20443;-83
2022/06/24 08:39:57;;;;;;;4.00;3.70;;;21.20;99.90;;;;;;5063888;28;20447;-83
2022/06/24 08:42:28;;;;;;;4.87;3.60;;;21.20;99.90;;;;;;5066038;28;20463;-83
2022/06/24 08:44:59;;;;;;;4.13;3.63;;;21.10;99.90;;;;;;5042385;28;20481;-83
2022/06/24 08:47:26;;;;;;;4.20;3.80;;;21.20;99.90;;;;;;5058793;28;20461;-83
2022/06/24 08:49:53;;;;;;;4.57;4.17;;;21.20;99.90;;;;;;5042186;28;21682;-85
2022/06/24 08:52:21;;;;;;;5.93;4.10;;;21.30;99.90;;;;;;5045689;28;20479;-84
2022/06/24 08:54:52;;;;;;;4.60;3.77;;;21.30;99.90;;;;;;5043088;28;20483;-84
2022/06/24 08:57:18;;;;;;;3.57;3.27;;;21.30;99.90;;;;;;5046522;28;20440;-83
2022/06/24 08:59:46;;;;;;;5.00;4.60;;;21.40;99.90;;;;;;5047594;28;20454;-85
2022/06/24 09:02:14;;;;;;;4.20;3.77;;;21.60;99.90;;;;;;5066070;28;20471;-85
2022/06/24 09:04:45;;;;;;;4.50;3.50;;;21.60;99.90;;;;;;5048667;28;20550;-85
2022/06/24 09:07:38;;;;;;;5.10;4.70;;;21.70;99.90;;;;;;5053105;28;22098;-85
2022/06/24 09:10:12;;;;;;;4.43;4.13;;;21.70;99.90;;;;;;5070416;28;20456;-86
2022/06/24 09:12:42;;;;;;;4.63;3.97;;;21.80;99.90;;;;;;5061336;28;20466;-86
2022/06/24 09:15:19;;;;;;;6.10;4.13;;;21.80;99.90;;;;;;5048669;28;20510;-82
2022/06/24 09:17:48;;;;;;;4.50;4.13;;;21.70;99.90;;;;;;5071274;28;20531;-84
2022/06/24 09:20:25;;;;;;;6.63;4.37;;;21.70;99.90;;;;;;5053688;28;20531;-83
2022/06/24 09:23:21;;;;;;;4.83;4.43;;;21.60;99.90;;;;;;5070342;28;20849;-81
2022/06/24 09:25:53;;;;;;;6.90;4.17;;;21.80;99.90;;;;;;5071575;28;20539;-84
2022/06/24 09:28:25;;;;;;;4.50;4.10;;;21.90;99.90;;;;;;5037387;28;20507;-87
2022/06/24 09:31:02;;;;;;;5.90;4.37;;;22.00;99.90;;;;;;5075282;28;20444;-86
2022/06/24 09:33:37;;;;;;;4.53;4.13;;;22.20;99.90;;;;;;5060127;28;20467;-85
2022/06/24 09:36:06;;;;;;;5.27;4.80;;;22.40;99.90;;;;;;5049261;28;20488;-84
2022/06/24 09:39:02;;;;;;;4.33;4.00;;;22.60;99.90;;;;;;5048018;28;20466;-84
2022/06/24 09:41:30;;;;;;;5.70;5.10;;;23.10;99.90;;;;;;5064794;28;20462;-82
2022/06/24 09:43:58;;;;;;;4.63;3.90;;;23.20;99.90;;;;;;5061331;28;20466;-83
2022/06/24 09:46:33;;;;;;;4.70;4.00;;;23.40;99.90;;;;;;5047980;28;20542;-83
2022/06/24 09:49:06;;;;;;;4.00;3.70;;;23.70;99.90;;;;;;5044882;28;20456;-84
2022/06/24 09:51:45;;;;;;;5.33;4.83;;;23.90;99.90;;;;;;5063757;28;20459;-85
2022/06/24 09:54:24;;;;;;;4.17;3.87;;;23.90;99.90;;;;;;5063582;28;20487;-83
2022/06/24 09:56:56;;;;;;;3.83;3.53;;;24.10;99.90;;;;;;5046908;28;20451;-82
2022/06/24 10:02:22;;;;;;;5.07;4.30;;;24.60;99.90;;;;;;5039065;28;20449;-81
2022/06/24 10:04:51;;;;;;;4.00;3.60;;;25.20;98.70;;;;;;5061510;28;20479;-81
2022/06/24 10:07:21;;;;;;;3.80;3.20;;;25.70;98.30;;;;;;5059324;28;20509;-83
2022/06/24 10:09:49;;;;;;;3.13;2.93;;;26.10;95.30;;;;;;5081711;28;20439;-84
2022/06/24 10:12:17;;;;;;;3.27;3.07;;;26.10;95.30;;;;;;5081167;28;20541;-84
2022/06/24 10:14:49;;;;;;;4.03;2.80;;;26.20;95.60;;;;;;5051225;28;20550;-84
2022/06/24 10:17:17;;;;;;;3.83;3.10;;;26.50;95.30;;;;;;5072099;28;20452;-83
2022/06/24 10:19:45;;;;;;;2.80;2.60;;;26.80;93.70;;;;;;5050725;28;20482;-84
2022/06/24 10:22:35;;;;;;;3.83;3.50;;;27.40;91.60;;;;;;5071362;28;20444;-87
2022/06/24 10:25:03;;;;;;;5.20;3.60;;;26.60;92.60;;;;;;5064300;28;20443;-84
2022/06/24 10:28:02;;;;;;;3.20;2.40;;;26.80;92.60;;;;;;5051632;28;20456;-84
2022/06/24 10:30:41;;;;;;;3.03;2.73;;;27.20;91.50;;;;;;5072178;28;20443;-81
2022/06/24 10:33:19;;;;;;;4.67;2.73;;;28.10;90.70;;;;;;5053873;28;20464;-84
2022/06/24 10:35:57;;;;;;;4.80;2.70;;;28.20;88.20;;;;;;5062843;28;20975;-83
2022/06/24 10:38:25;;;;;;;2.30;2.10;;;28.30;84.50;;;;;;5057082;28;20451;-84
2022/06/24 10:40:54;;;;;;;4.50;2.40;;;28.00;85.20;;;;;;5060628;28;20532;-84
2022/06/24 10:43:41;;;;;;;4.37;2.60;;;27.70;88.30;;;;;;5061582;28;20910;-83
2022/06/24 10:46:11;;;;;;;2.57;2.37;;;27.70;87.80;;;;;;5044114;28;20471;-83
2022/06/24 10:48:55;;;;;;;2.67;2.47;;;27.80;86.10;;;;;;5041354;28;20459;-82
2022/06/24 10:51:28;;;;;;;2.23;2.03;;;28.80;83.10;;;;;;5040962;28;20467;-84
2022/06/24 10:54:09;;;;;;;2.37;2.13;;;29.70;77.90;;;;;;5044216;28;20483;-83
2022/06/24 10:56:43;;;;;;;2.57;2.40;;;30.30;75.80;;;;;;5066687;28;20431;-87
2022/06/24 10:59:12;;;;;;;2.40;2.23;;;30.00;75.00;;;;;;5074718;28;20519;-82
2022/06/24 11:01:43;;;;;;;2.90;2.60;;;30.00;75.70;;;;;;5066539;28;20523;-84
2022/06/24 11:04:30;;;;;;;3.30;3.00;;;30.70;73.40;;;;;;5043393;28;20475;-83
2022/06/24 11:07:11;;;;;;;5.73;3.10;;;30.70;71.00;;;;;;5044438;28;20530;-86
2022/06/24 11:09:48;;;;;;;2.80;2.60;;;30.10;71.40;;;;;;5060369;28;20478;-84
2022/06/24 11:12:30;;;;;;;2.77;2.47;;;29.40;72.50;;;;;;5046206;28;20492;-84
2022/06/24 11:14:58;;;;;;;3.57;3.23;;;28.80;75.40;;;;;;5043980;28;20471;-83
2022/06/24 11:17:26;;;;;;;3.00;2.80;;;28.80;76.30;;;;;;5065598;28;20462;-84
2022/06/24 11:19:54;;;;;;;3.80;3.40;;;28.40;76.10;;;;;;5043668;28;20456;-82
2022/06/24 11:22:26;;;;;;;3.23;2.93;;;27.80;78.60;;;;;;5062768;28;20466;-84
2022/06/24 11:24:53;;;;;;;3.43;3.13;;;28.10;78.40;;;;;;5065339;28;20544;-84
2022/06/24 11:27:20;;;;;;;3.40;3.10;;;27.50;80.60;;;;;;5045783;28;20542;-83
2022/06/24 11:30:00;;;;;;;5.30;3.93;;;27.10;81.20;;;;;;5064365;28;20930;-85
2022/06/24 11:32:27;;;;;;;3.77;3.47;;;27.00;83.40;;;;;;5045366;28;20458;-88
2022/06/24 11:35:00;;;;;;;4.73;4.33;;;26.70;85.20;;;;;;5064127;28;20482;-84
2022/06/24 11:37:27;;;;;;;4.00;3.60;;;26.40;86.90;;;;;;5063580;28;20806;-84
2022/06/24 11:39:54;;;;;;;5.83;4.83;;;26.30;90.00;;;;;;5061632;28;20459;-83
2022/06/24 11:42:22;;;;;;;4.50;4.20;;;26.10;91.40;;;;;;5044233;28;20474;-84
2022/06/24 11:44:51;;;;;;;5.17;4.63;;;26.40;92.20;;;;;;5062586;28;20472;-84
2022/06/24 11:47:30;;;;;;;5.50;5.10;;;26.60;92.00;;;;;;5044034;28;20463;-83
2022/06/24 11:49:57;;;;;;;5.47;4.97;;;26.10;92.80;;;;;;5068749;28;20425;-86
2022/06/24 11:52:24;;;;;;;6.40;5.10;;;25.70;94.50;;;;;;5047270;28;20527;-85
2022/06/24 11:54:54;;;;;;;6.57;6.00;;;25.60;95.50;;;;;;5046777;28;20491;-87
2022/06/24 11:57:34;;;;;;;5.40;5.00;;;25.50;96.20;;;;;;5065664;28;21224;-91
2022/06/24 12:00:08;;;;;;;7.30;4.23;;;25.40;96.60;;;;;;5070374;28;20458;-87
2022/06/24 12:02:39;;;;;;;5.40;4.90;;;25.80;94.90;;;;;;5054859;28;20598;-87
2022/06/24 12:05:09;;;;;;;5.37;4.90;;;25.70;95.10;;;;;;5055556;28;20454;-87
2022/06/24 12:07:41;;;;;;;4.80;4.40;;;25.60;95.00;;;;;;5060694;28;20447;-89
2022/06/24 12:10:11;;;;;;;4.43;4.03;;;25.80;95.40;;;;;;5052261;28;20538;-83
2022/06/24 12:12:55;;;;;;;5.53;5.03;;;27.10;93.80;;;;;;5050373;28;20447;-88
2022/06/24 12:15:27;;;;;;;4.53;4.13;;;27.90;91.60;;;;;;5049974;28;20485;-87
2022/06/24 12:18:00;;;;;;;4.90;4.50;;;28.60;88.50;;;;;;5048640;28;20457;-86
2022/06/24 12:20:30;;;;;;;4.83;4.43;;;28.40;87.00;;;;;;5068554;28;20431;-87
2022/06/24 12:23:18;;;;;;;4.10;3.80;;;27.60;89.30;;;;;;5067715;28;20462;-88
2022/06/24 12:25:49;;;;;;;8.33;3.93;;;27.30;90.40;;;;;;5050414;28;20511;-88
2022/06/24 12:28:20;;;;;;;4.60;4.20;;;28.10;88.00;;;;;;5052839;28;20453;-85
2022/06/24 12:30:58;;;;;;;4.77;4.20;;;28.80;83.40;;;;;;5051525;28;20448;-85
2022/06/24 12:33:26;;;;;;;5.57;3.47;;;29.10;81.80;;;;;;5066530;28;22035;-87
2022/06/24 12:36:04;;;;;;;4.00;2.67;;;28.80;80.30;;;;;;5050317;28;20515;-88
2022/06/24 12:38:31;;;;;;;3.43;3.13;;;28.10;79.50;;;;;;5048961;28;20459;-85
2022/06/24 12:41:17;;;;;;;3.93;3.07;;;28.10;82.10;;;;;;5069198;28;20481;-85
2022/06/24 12:44:13;;;;;;;3.87;3.50;;;27.80;81.10;;;;;;5067344;28;20677;-87
2022/06/24 12:52:45;;;;;;;4.17;3.73;;;28.00;81.00;;;;;;5071637;28;20452;-86
2022/06/24 12:55:21;;;;;;;5.03;4.57;;;27.80;79.20;;;;;;5053732;28;20494;-86
2022/06/24 12:57:48;;;;;;;7.47;4.07;;;27.30;83.10;;;;;;5051386;28;20443;-85
2022/06/24 13:00:18;;;;;;;4.07;3.77;;;27.00;84.30;;;;;;5054237;28;20539;-85
2022/06/24 13:02:47;;;;;;;5.97;4.93;;;26.90;84.50;;;;;;5068530;28;20460;-86
2022/06/24 13:05:16;;;;;;;5.13;4.00;;;27.10;84.80;;;;;;5054784;28;20505;-85
2022/06/24 13:07:54;;;;;;;6.23;3.60;;;27.50;83.30;;;;;;5059880;28;20463;-86
2022/06/24 13:10:23;;;;;;;6.07;4.13;;;27.50;83.10;;;;;;5059197;28;20515;-87
2022/06/24 13:12:59;;;;;;;5.20;4.10;;;27.20;83.50;;;;;;5061090;28;20601;-87
2022/06/24 13:15:33;;;;;;;3.93;3.63;;;27.10;84.90;;;;;;5054309;28;20467;-85
2022/06/24 13:18:03;;;;;;;3.50;3.20;;;27.10;84.10;;;;;;5044658;28;20428;-87
2022/06/24 13:20:32;;;;;;;3.40;3.10;;;27.20;84.00;;;;;;5044180;28;20455;-85